createdAt,value
2022-08-20T00:02:11.063Z,2.83
2022-08-20T00:04:39.491Z,3.00
2022-08-20T00:07:07.277Z,3.00
2022-08-20T00:09:33.862Z,2.95
2022-08-20T00:12:05.203Z,3.28
2022-08-20T00:14:34.014Z,2.90
2022-08-20T00:17:02.351Z,3.28
2022-08-20T00:19:29.634Z,3.30
2022-08-20T00:21:58.343Z,3.45
2022-08-20T00:24:26.090Z,3.10
2022-08-20T00:26:53.089Z,2.85
2022-08-20T00:29:20.490Z,2.95
2022-08-20T00:31:49.701Z,3.33
2022-08-20T00:34:16.549Z,3.13
2022-08-20T00:36:43.233Z,2.88
2022-08-20T00:39:09.801Z,3.10
2022-08-20T00:41:36.737Z,3.17
2022-08-20T00:44:20.002Z,3.30
2022-08-20T00:46:47.536Z,3.20
2022-08-20T00:49:29.273Z,3.40
2022-08-20T00:52:07.769Z,3.60
2022-08-20T00:54:47.010Z,3.33
2022-08-20T00:57:24.586Z,3.50
2022-08-20T00:59:52.695Z,3.22
2022-08-20T01:02:23.323Z,3.28
2022-08-20T01:04:50.210Z,3.45
2022-08-20T01:07:16.933Z,3.20
2022-08-20T01:09:57.781Z,3.75
2022-08-20T01:12:29.021Z,3.45
2022-08-20T01:14:58.662Z,3.53
2022-08-20T01:17:28.176Z,3.40
2022-08-20T01:20:03.022Z,3.45
2022-08-20T01:22:42.766Z,3.20
2022-08-20T01:25:16.639Z,3.33
2022-08-20T01:27:45.441Z,3.28
2022-08-20T01:30:13.761Z,3.20
2022-08-20T01:32:40.580Z,2.90
2022-08-20T01:35:08.665Z,3.03
2022-08-20T01:37:35.315Z,3.28
2022-08-20T01:40:04.703Z,3.33
2022-08-20T01:42:52.707Z,3.78
2022-08-20T01:45:27.752Z,3.40
2022-08-20T01:47:54.744Z,3.22
2022-08-20T01:50:25.949Z,3.35
2022-08-20T01:53:01.221Z,3.47
2022-08-20T01:55:28.080Z,3.42
2022-08-20T01:57:55.078Z,3.17
2022-08-20T02:00:23.088Z,3.40
2022-08-20T02:02:50.519Z,3.63
2022-08-20T02:05:17.857Z,3.83
2022-08-20T02:07:44.691Z,3.35
2022-08-20T02:10:14.620Z,3.50
2022-08-20T02:12:41.686Z,3.60
2022-08-20T02:15:10.651Z,3.20
2022-08-20T02:17:38.944Z,2.92
2022-08-20T02:20:23.732Z,3.13
2022-08-20T02:22:53.284Z,3.45
2022-08-20T02:25:25.616Z,3.70
2022-08-20T02:27:54.280Z,3.75
2022-08-20T02:30:27.922Z,3.95
2022-08-20T02:32:59.122Z,3.50
2022-08-20T02:35:26.924Z,3.22
2022-08-20T02:37:53.995Z,3.15
2022-08-20T02:40:27.331Z,3.10
2022-08-20T02:43:01.732Z,3.33
2022-08-20T02:45:31.165Z,3.40
2022-08-20T02:47:58.018Z,3.10
2022-08-20T02:50:26.657Z,3.20
2022-08-20T02:52:53.784Z,3.50
2022-08-20T02:55:26.842Z,3.50
2022-08-20T02:57:59.805Z,3.67
2022-08-20T03:00:29.081Z,3.45
2022-08-20T03:02:59.024Z,3.95
2022-08-20T03:05:25.885Z,3.47
2022-08-20T03:07:53.238Z,3.30
2022-08-20T03:10:30.200Z,3.30
2022-08-20T03:12:56.883Z,3.80
2022-08-20T03:15:23.507Z,3.58
2022-08-20T03:17:50.538Z,3.63
2022-08-20T03:20:17.300Z,3.80
2022-08-20T03:22:49.294Z,3.70
2022-08-20T03:25:16.994Z,3.78
2022-08-20T03:27:44.816Z,3.55
2022-08-20T03:30:14.793Z,3.50
2022-08-20T03:32:41.664Z,3.45
2022-08-20T03:35:11.585Z,3.50
2022-08-20T03:37:39.480Z,3.05
2022-08-20T03:40:14.889Z,3.67
2022-08-20T03:42:42.257Z,3.22
2022-08-20T03:45:10.813Z,3.53
2022-08-20T03:47:38.711Z,3.55
2022-08-20T03:50:07.564Z,3.60
2022-08-20T03:52:34.309Z,3.50
2022-08-20T03:55:01.062Z,3.40
2022-08-20T03:57:28.087Z,3.50
2022-08-20T03:59:58.546Z,3.58
2022-08-20T04:02:25.566Z,4.20
2022-08-20T04:04:52.171Z,4.38
2022-08-20T04:07:23.080Z,4.30
2022-08-20T04:09:49.864Z,4.63
2022-08-20T04:12:16.420Z,4.40
2022-08-20T04:14:43.139Z,4.45
2022-08-20T04:17:12.550Z,4.90
2022-08-20T04:19:40.464Z,4.15
2022-08-20T04:22:07.227Z,4.30
2022-08-20T04:24:35.119Z,4.72
2022-08-20T04:27:02.259Z,4.72
2022-08-20T04:29:32.254Z,4.50
2022-08-20T04:32:00.563Z,4.63
2022-08-20T04:34:28.631Z,4.38
2022-08-20T04:36:55.800Z,4.07
2022-08-20T04:39:23.010Z,4.60
2022-08-20T04:41:49.673Z,4.47
2022-08-20T04:44:16.342Z,5.05
2022-08-20T04:46:43.930Z,4.68
2022-08-20T04:49:11.027Z,4.78
2022-08-20T04:51:37.655Z,4.88
2022-08-20T04:54:04.661Z,4.70
2022-08-20T04:56:34.448Z,4.80
2022-08-20T04:59:01.802Z,5.43
2022-08-20T05:01:29.223Z,5.32
2022-08-20T05:03:57.367Z,5.82
2022-08-20T05:06:27.457Z,5.30
2022-08-20T05:08:56.659Z,5.18
2022-08-20T05:11:33.745Z,5.47
2022-08-20T05:14:08.547Z,5.43
2022-08-20T05:16:37.998Z,5.50
2022-08-20T05:19:06.517Z,5.90
2022-08-20T05:21:33.295Z,6.28
2022-08-20T05:23:59.952Z,6.32
2022-08-20T05:26:26.581Z,6.40
2022-08-20T05:28:58.819Z,6.55
2022-08-20T05:31:31.476Z,5.88
2022-08-20T05:34:11.161Z,6.57
2022-08-20T05:36:50.348Z,6.78
2022-08-20T05:39:22.094Z,6.90
2022-08-20T05:41:50.343Z,7.05
2022-08-20T05:44:17.815Z,7.47
2022-08-20T05:46:46.103Z,7.00
2022-08-20T05:49:15.504Z,7.93
2022-08-20T05:51:43.177Z,8.65
2022-08-20T05:54:10.112Z,7.43
2022-08-20T05:56:37.389Z,7.43
2022-08-20T05:59:06.500Z,7.45
2022-08-20T06:01:35.184Z,8.80
2022-08-20T06:04:01.945Z,8.07
2022-08-20T06:06:44.508Z,9.23
2022-08-20T06:09:12.561Z,10.00
2022-08-20T06:11:39.239Z,9.52
2022-08-20T06:14:05.951Z,10.40
2022-08-20T06:16:32.681Z,9.88
2022-08-20T06:18:59.784Z,10.23
2022-08-20T06:21:29.552Z,11.55
2022-08-20T06:23:59.354Z,9.65
2022-08-20T06:26:29.618Z,10.35
2022-08-20T06:28:58.060Z,10.82
2022-08-20T06:31:24.738Z,10.32
2022-08-20T06:33:51.383Z,10.82
2022-08-20T06:36:18.731Z,10.27
2022-08-20T06:38:46.477Z,10.77
2022-08-20T06:41:13.799Z,10.68
2022-08-20T06:43:40.591Z,9.85
2022-08-20T06:46:07.494Z,10.00
2022-08-20T06:48:34.473Z,9.40
2022-08-20T06:51:01.150Z,10.68
2022-08-20T06:53:27.831Z,10.68
2022-08-20T06:55:57.893Z,11.00
2022-08-20T06:58:36.870Z,11.77
2022-08-20T07:01:09.506Z,10.57
2022-08-20T07:03:54.076Z,12.30
2022-08-20T07:06:24.495Z,11.55
2022-08-20T07:08:51.086Z,11.88
2022-08-20T07:11:17.742Z,11.98
2022-08-20T07:13:44.367Z,12.00
2022-08-20T07:16:11.075Z,11.73
2022-08-20T07:18:37.709Z,11.82
2022-08-20T07:21:04.498Z,12.45
2022-08-20T07:23:31.400Z,12.25
2022-08-20T07:25:58.162Z,13.70
2022-08-20T07:28:26.892Z,12.93
2022-08-20T07:30:55.795Z,12.25
2022-08-20T07:33:25.242Z,13.23
2022-08-20T07:35:51.823Z,12.70
2022-08-20T07:38:22.962Z,12.55
2022-08-20T07:40:51.780Z,13.52
2022-08-20T07:43:18.456Z,13.48
2022-08-20T07:45:47.657Z,12.93
2022-08-20T07:48:29.770Z,13.63
2022-08-20T07:50:59.719Z,12.65
2022-08-20T07:53:26.883Z,13.02
2022-08-20T07:55:59.089Z,12.20
2022-08-20T07:58:27.622Z,12.65
2022-08-20T08:01:00.806Z,12.20
2022-08-20T08:03:40.518Z,12.07
2022-08-20T08:06:28.719Z,12.77
2022-08-20T08:09:05.351Z,12.98
2022-08-20T08:11:34.832Z,12.50
2022-08-20T08:14:02.771Z,12.80
2022-08-20T08:16:29.883Z,12.50
2022-08-20T08:18:56.697Z,12.20
2022-08-20T08:21:24.364Z,12.38
2022-08-20T08:23:51.175Z,13.30
2022-08-20T08:26:19.279Z,13.45
2022-08-20T08:28:46.743Z,12.82
2022-08-20T08:31:14.843Z,13.20
2022-08-20T08:33:42.407Z,12.45
2022-08-20T08:36:12.653Z,14.52
2022-08-20T08:38:41.305Z,14.48
2022-08-20T08:41:21.183Z,13.57
2022-08-20T08:43:51.726Z,14.57
2022-08-20T08:46:24.233Z,14.27
2022-08-20T08:48:54.685Z,13.52
2022-08-20T08:51:38.282Z,13.40
2022-08-20T08:54:07.182Z,13.88
2022-08-20T08:56:34.868Z,13.48
2022-08-20T08:59:08.024Z,13.90
2022-08-20T09:01:54.368Z,13.38
2022-08-20T09:04:28.756Z,13.00
2022-08-20T09:06:55.412Z,12.23
2022-08-20T09:09:29.142Z,14.00
2022-08-20T09:12:04.930Z,11.85
2022-08-20T09:14:31.635Z,12.60
2022-08-20T09:16:58.291Z,11.35
2022-08-20T09:19:25.106Z,12.00
2022-08-20T09:21:51.700Z,11.48
2022-08-20T09:24:18.615Z,11.65
2022-08-20T09:26:46.248Z,11.70
2022-08-20T09:29:13.141Z,12.20
2022-08-20T09:31:39.923Z,12.45
2022-08-20T09:34:07.292Z,12.23
2022-08-20T09:36:33.894Z,11.75
2022-08-20T09:39:02.785Z,11.07
2022-08-20T09:41:31.176Z,10.63
2022-08-20T09:44:00.649Z,11.32
2022-08-20T09:46:27.688Z,9.77
2022-08-20T09:48:55.478Z,9.90
2022-08-20T09:51:22.776Z,8.65
2022-08-20T09:53:50.066Z,8.05
2022-08-20T09:56:17.402Z,7.72
2022-08-20T09:58:54.958Z,7.50
2022-08-20T10:01:23.245Z,7.70
2022-08-20T10:03:50.418Z,7.82
2022-08-20T10:06:18.468Z,7.75
2022-08-20T10:08:45.136Z,7.03
2022-08-20T10:11:12.100Z,7.05
2022-08-20T10:13:38.689Z,7.50
2022-08-20T10:16:08.888Z,8.00
2022-08-20T10:18:36.484Z,6.72
2022-08-20T10:21:03.221Z,6.60
2022-08-20T10:23:29.978Z,6.53
2022-08-20T10:25:56.707Z,6.15
2022-08-20T10:28:23.242Z,5.55
2022-08-20T10:30:50.256Z,5.80
2022-08-20T10:33:16.856Z,4.90
2022-08-20T10:35:43.527Z,4.40
2022-08-20T10:38:10.176Z,2.90
2022-08-20T10:40:36.971Z,2.65
2022-08-20T10:43:03.659Z,3.42
2022-08-20T10:45:31.283Z,2.80
2022-08-20T10:48:01.812Z,2.80
2022-08-20T10:50:30.284Z,2.70
2022-08-20T10:52:57.903Z,2.75
2022-08-20T10:55:24.854Z,3.03
2022-08-20T10:57:51.424Z,2.88
2022-08-20T11:00:19.470Z,3.10
2022-08-20T11:02:46.601Z,3.78
2022-08-20T11:05:13.460Z,3.42
2022-08-20T11:07:53.515Z,2.20
2022-08-20T11:10:28.659Z,1.80
2022-08-20T11:12:55.456Z,2.13
2022-08-20T11:15:22.682Z,2.00
2022-08-20T11:17:49.585Z,2.58
2022-08-20T11:20:19.425Z,2.60
2022-08-20T11:22:49.136Z,2.50
2022-08-20T11:25:16.100Z,2.20
2022-08-20T11:27:47.292Z,1.70
2022-08-20T11:30:21.965Z,2.50
2022-08-20T11:32:49.116Z,2.63
2022-08-20T11:35:41.026Z,2.63
2022-08-20T11:38:03.630Z,2.38
2022-08-20T11:40:30.864Z,2.30
2022-08-20T11:43:14.255Z,1.90
2022-08-20T11:45:42.420Z,1.70
2022-08-20T11:48:09.170Z,1.65
2022-08-20T11:50:35.834Z,1.83
2022-08-20T11:53:02.481Z,1.90
2022-08-20T11:55:31.015Z,1.70
2022-08-20T11:58:00.287Z,1.98
2022-08-20T12:00:32.272Z,2.17
2022-08-20T12:03:01.997Z,2.60
2022-08-20T12:05:28.947Z,2.28
2022-08-20T12:07:55.786Z,2.20
2022-08-20T12:10:22.423Z,2.15
2022-08-20T12:12:49.065Z,2.20
2022-08-20T12:15:15.751Z,2.17
2022-08-20T12:17:42.417Z,2.40
2022-08-20T12:20:11.525Z,2.83
2022-08-20T12:22:39.105Z,2.00
2022-08-20T12:25:07.371Z,1.83
2022-08-20T12:27:36.235Z,1.70
2022-08-20T12:30:11.219Z,2.00
2022-08-20T12:32:38.588Z,1.80
2022-08-20T12:35:06.935Z,1.75
2022-08-20T12:37:33.926Z,1.73
2022-08-20T12:40:03.542Z,2.45
2022-08-20T12:42:30.530Z,1.40
2022-08-20T12:44:58.373Z,1.55
2022-08-20T12:47:30.863Z,1.50
2022-08-20T12:50:12.787Z,1.40
2022-08-20T12:52:40.328Z,1.50
2022-08-20T12:55:09.114Z,1.20
2022-08-20T12:57:41.467Z,1.10
2022-08-20T13:00:13.023Z,1.17
2022-08-20T13:02:39.697Z,0.98
2022-08-20T13:05:07.419Z,1.00
2022-08-20T13:07:34.498Z,1.00
2022-08-20T13:10:01.902Z,0.85
2022-08-20T13:12:28.937Z,0.93
2022-08-20T13:14:55.506Z,0.90
2022-08-20T13:17:32.766Z,1.00
2022-08-20T13:20:09.408Z,1.00
2022-08-20T13:22:36.458Z,0.90
2022-08-20T13:25:05.208Z,0.80
2022-08-20T13:27:31.846Z,0.68
2022-08-20T13:29:59.233Z,0.80
2022-08-20T13:32:26.173Z,0.70
2022-08-20T13:34:53.269Z,0.75
2022-08-20T13:37:25.613Z,0.85
2022-08-20T13:39:54.096Z,0.63
2022-08-20T13:42:21.794Z,0.98
2022-08-20T13:44:49.248Z,0.90
2022-08-20T13:47:27.895Z,0.82
2022-08-20T13:49:58.710Z,0.90
2022-08-20T13:52:26.504Z,0.90
2022-08-20T13:54:54.453Z,2.42
2022-08-20T13:57:22.851Z,2.50
2022-08-20T13:59:51.583Z,2.33
2022-08-20T14:02:19.403Z,2.25
2022-08-20T14:04:47.681Z,2.28
2022-08-20T14:07:31.607Z,2.97
2022-08-20T14:10:02.638Z,3.10
2022-08-20T14:12:30.604Z,4.40
2022-08-20T14:14:57.892Z,4.55
2022-08-20T14:17:32.111Z,4.53
2022-08-20T14:20:06.423Z,4.93
2022-08-20T14:22:33.506Z,4.97
2022-08-20T14:25:00.148Z,5.20
2022-08-20T14:27:31.091Z,4.65
2022-08-20T14:29:58.891Z,5.40
2022-08-20T14:32:26.145Z,4.53
2022-08-20T14:34:53.783Z,5.47
2022-08-20T14:37:50.822Z,5.57
2022-08-20T14:40:19.102Z,5.43
2022-08-20T14:42:47.781Z,5.70
2022-08-20T14:45:19.878Z,5.65
2022-08-20T14:47:53.528Z,5.70
2022-08-20T14:50:32.662Z,4.70
2022-08-20T14:53:00.591Z,5.10
2022-08-20T14:55:30.231Z,4.90
2022-08-20T14:57:57.132Z,4.38
2022-08-20T15:00:30.325Z,4.50
2022-08-20T15:02:57.561Z,5.18
2022-08-20T15:05:24.620Z,4.65
2022-08-20T15:07:54.042Z,5.00
2022-08-20T15:10:30.281Z,4.20
2022-08-20T15:12:57.785Z,3.30
2022-08-20T15:15:25.339Z,2.90
2022-08-20T15:17:54.535Z,2.70
2022-08-20T15:20:25.294Z,2.40
2022-08-20T15:22:52.411Z,2.78
2022-08-20T15:25:21.521Z,2.88
2022-08-20T15:27:48.939Z,1.90
2022-08-20T15:30:19.321Z,1.50
2022-08-20T15:32:46.265Z,1.73
2022-08-20T15:35:13.354Z,1.30
2022-08-20T15:37:42.631Z,1.30
2022-08-20T15:40:11.090Z,1.10
2022-08-20T15:42:38.766Z,1.40
2022-08-20T15:45:07.605Z,1.40
2022-08-20T15:48:01.461Z,1.38
2022-08-20T15:50:52.953Z,1.30
2022-08-20T15:53:53.702Z,1.20
2022-08-20T15:56:23.444Z,1.40
2022-08-20T15:59:25.527Z,1.38
2022-08-20T16:02:29.821Z,1.40
2022-08-20T16:04:59.537Z,1.80
2022-08-20T16:07:36.871Z,1.77
2022-08-20T16:10:37.552Z,2.55
2022-08-20T16:13:29.592Z,3.42
2022-08-20T16:16:03.426Z,3.88
2022-08-20T16:18:34.620Z,4.10
2022-08-20T16:21:06.097Z,4.18
2022-08-20T16:23:36.895Z,3.60
2022-08-20T16:26:25.702Z,3.40
2022-08-20T16:29:02.607Z,2.78
2022-08-20T16:31:35.488Z,2.92
2022-08-20T16:34:39.666Z,2.10
2022-08-20T16:37:24.601Z,1.70
2022-08-20T16:39:51.232Z,1.88
2022-08-20T16:42:23.129Z,1.45
2022-08-20T16:44:53.928Z,1.38
2022-08-20T16:47:22.117Z,1.23
2022-08-20T16:50:08.800Z,1.17
2022-08-20T16:52:35.447Z,1.20
2022-08-20T16:55:02.241Z,1.13
2022-08-20T16:57:29.419Z,1.10
2022-08-20T16:59:58.955Z,1.27
2022-08-20T17:02:26.060Z,1.20
2022-08-20T17:04:58.637Z,1.10
2022-08-20T17:07:33.286Z,0.95
2022-08-20T17:10:26.482Z,0.90
2022-08-20T17:13:05.509Z,1.10
2022-08-20T17:15:34.662Z,0.90
2022-08-20T17:18:38.754Z,0.88
2022-08-20T17:21:25.670Z,0.90
2022-08-20T17:23:56.879Z,1.10
2022-08-20T17:26:36.664Z,1.30
2022-08-20T17:29:18.915Z,0.90
2022-08-20T17:31:48.710Z,1.10
2022-08-20T17:34:25.276Z,1.30
2022-08-20T17:37:08.490Z,1.10
2022-08-20T17:39:45.597Z,1.00
2022-08-20T17:42:20.294Z,1.20
2022-08-20T17:45:08.322Z,1.25
2022-08-20T17:47:38.714Z,1.10
2022-08-20T17:50:15.856Z,1.20
2022-08-20T17:53:23.125Z,1.20
2022-08-20T17:56:03.902Z,1.20
2022-08-20T17:58:54.914Z,1.00
2022-08-20T18:01:23.767Z,1.30
2022-08-20T18:03:52.164Z,1.50
2022-08-20T18:06:41.822Z,1.27
2022-08-20T18:09:15.821Z,2.00
2022-08-20T18:11:54.855Z,2.20
2022-08-20T18:14:48.560Z,2.28
2022-08-20T18:17:41.530Z,2.30
2022-08-20T18:20:23.620Z,2.50
2022-08-20T18:22:58.088Z,3.00
2022-08-20T18:25:39.251Z,3.25
2022-08-20T18:28:22.879Z,3.00
2022-08-20T18:30:57.292Z,2.85
2022-08-20T18:33:30.874Z,3.00
2022-08-20T18:36:27.320Z,3.17
2022-08-20T18:39:06.016Z,2.72
2022-08-20T18:41:39.353Z,2.80
2022-08-20T18:44:12.430Z,3.03
2022-08-20T18:46:52.599Z,3.15
2022-08-20T18:49:34.216Z,3.33
2022-08-20T18:52:18.412Z,3.20
2022-08-20T18:54:54.218Z,3.28
2022-08-20T18:57:27.072Z,2.90
2022-08-20T19:00:23.874Z,3.10
2022-08-20T19:03:07.462Z,3.55
2022-08-20T19:05:46.564Z,3.05
2022-08-20T19:08:44.717Z,3.70
2022-08-20T19:11:28.984Z,3.70
2022-08-20T19:14:27.736Z,3.47
2022-08-20T19:17:37.183Z,3.13
2022-08-20T19:20:13.597Z,3.60
2022-08-20T19:22:42.155Z,3.75
2022-08-20T19:25:19.698Z,3.67
2022-08-20T19:27:46.564Z,4.57
2022-08-20T19:30:13.208Z,5.50
2022-08-20T19:32:46.330Z,5.70
2022-08-20T19:35:17.493Z,4.80
2022-08-20T19:37:51.525Z,4.72
2022-08-20T19:40:28.386Z,4.60
2022-08-20T19:42:58.280Z,4.60
2022-08-20T19:45:40.782Z,4.97
2022-08-20T19:48:16.548Z,4.75
2022-08-20T19:50:50.805Z,4.60
2022-08-20T19:53:30.886Z,4.10
2022-08-20T19:56:02.195Z,3.80
2022-08-20T19:58:30.429Z,4.10
2022-08-20T20:00:58.044Z,4.13
2022-08-20T20:03:27.040Z,3.67
2022-08-20T20:06:00.285Z,3.80
2022-08-20T20:08:30.192Z,3.58
2022-08-20T20:11:00.481Z,3.22
2022-08-20T20:13:30.119Z,3.80
2022-08-20T20:16:03.167Z,3.53
2022-08-20T20:18:33.932Z,3.90
2022-08-20T20:21:22.561Z,4.00
2022-08-20T20:23:59.205Z,4.32
2022-08-20T20:26:31.160Z,4.03
2022-08-20T20:29:12.017Z,3.65
2022-08-20T20:31:49.067Z,3.05
2022-08-20T20:34:18.237Z,3.30
2022-08-20T20:36:47.539Z,4.05
2022-08-20T20:39:31.812Z,3.40
2022-08-20T20:42:00.984Z,3.60
2022-08-20T20:47:27.492Z,3.70
2022-08-20T20:49:57.516Z,3.45
2022-08-20T20:52:32.065Z,3.45
2022-08-20T20:55:26.988Z,3.65
2022-08-20T20:57:54.357Z,3.70
2022-08-20T21:00:27.692Z,4.20
2022-08-20T21:02:55.294Z,4.20
2022-08-20T21:05:23.618Z,4.70
2022-08-20T21:07:55.657Z,4.50
2022-08-20T21:10:26.088Z,4.07
2022-08-20T21:12:53.533Z,4.93
2022-08-20T21:15:23.015Z,4.65
2022-08-20T21:17:50.334Z,4.03
2022-08-20T21:20:17.054Z,3.88
2022-08-20T21:22:43.666Z,4.68
2022-08-20T21:25:10.325Z,4.53
2022-08-20T21:27:37.292Z,4.35
2022-08-20T21:30:05.156Z,4.80
2022-08-20T21:32:32.119Z,4.93
2022-08-20T21:34:58.713Z,4.00
2022-08-20T21:37:25.445Z,3.70
2022-08-20T21:39:52.266Z,4.00
2022-08-20T21:42:29.416Z,3.47
2022-08-20T21:44:57.520Z,3.55
2022-08-20T21:47:24.886Z,3.95
2022-08-20T21:49:52.009Z,3.28
2022-08-20T21:52:18.791Z,3.78
2022-08-20T21:54:45.527Z,3.50
2022-08-20T21:57:19.537Z,3.55
2022-08-20T21:59:46.794Z,3.60
2022-08-20T22:02:44.688Z,3.35
2022-08-20T22:05:11.425Z,3.65
2022-08-20T22:07:38.112Z,3.28
2022-08-20T22:10:05.306Z,3.28
2022-08-20T22:12:56.113Z,3.63
2022-08-20T22:15:22.999Z,3.47
2022-08-20T22:17:49.546Z,3.58
2022-08-20T22:20:16.198Z,3.83
2022-08-20T22:22:42.940Z,4.10
2022-08-20T22:25:12.857Z,3.42
2022-08-20T22:27:40.221Z,4.00
2022-08-20T22:30:07.790Z,3.20
2022-08-20T22:32:51.425Z,3.30
2022-08-20T22:35:19.044Z,3.08
2022-08-20T22:37:45.918Z,2.33
2022-08-20T22:40:12.549Z,3.10
2022-08-20T22:42:39.265Z,2.92
2022-08-20T22:45:11.625Z,3.10
2022-08-20T22:47:42.173Z,3.35
2022-08-20T22:50:11.321Z,3.72
2022-08-20T22:52:39.877Z,3.30
2022-08-20T22:55:07.349Z,2.78
2022-08-20T22:57:36.795Z,3.45
2022-08-20T23:00:06.622Z,3.40
2022-08-20T23:02:33.401Z,2.92
2022-08-20T23:04:59.971Z,3.13
2022-08-20T23:07:26.690Z,2.70
2022-08-20T23:09:53.347Z,3.30
2022-08-20T23:12:19.966Z,2.80
2022-08-20T23:14:46.554Z,2.92
2022-08-20T23:17:16.234Z,3.00
2022-08-20T23:19:44.178Z,2.95
2022-08-20T23:25:40.275Z,3.00
2022-08-20T23:28:07.283Z,3.20
2022-08-20T23:30:33.970Z,2.85
2022-08-20T23:33:01.483Z,2.90
2022-08-20T23:35:31.929Z,2.95
2022-08-20T23:37:59.006Z,3.10
2022-08-20T23:40:28.304Z,3.22
2022-08-20T23:42:56.391Z,2.88
2022-08-20T23:45:23.805Z,2.92
2022-08-20T23:48:28.177Z,2.85
2022-08-20T23:50:54.837Z,2.90
2022-08-20T23:53:21.435Z,3.00
2022-08-20T23:55:48.198Z,3.13
2022-08-20T23:58:17.732Z,3.05
